Terminal Aerodrome Forecast
Issued by NWS Wichita, KS

Home | Current Version | Previous Version | Text Only | Print | Product List | Glossary Off
Versions: 1 2 3 4 5 6 7 8 9 10 11 12

000
FTUS43 KICT 210520
TAFICT
TAF
KICT 210520Z 2106/2206 19011KT P6SM BKN250
     FM211100 26008KT P6SM BKN150
     FM211400 34010KT P6SM BKN120
     FM211700 01017G25KT P6SM BKN200
     FM212300 01013KT P6SM SKC
     FM220400 02005KT P6SM SKC=

USA.gov is the U.S. government's official web portal to all federal, state and local government web resources and services.